sensor_id;sensor_type;location;lat;lon;timestamp;temperature;humidity
8226;DHT22;4154;48.810;9.012;2022-09-03T00:00:43;17.60;87.50
8226;DHT22;4154;48.810;9.012;2022-09-03T00:03:19;17.50;94.70
8226;DHT22;4154;48.810;9.012;2022-09-03T00:06:19;17.60;88.00
8226;DHT22;4154;48.810;9.012;2022-09-03T00:09:11;17.60;88.00
8226;DHT22;4154;48.810;9.012;2022-09-03T00:11:50;17.60;88.00
8226;DHT22;4154;48.810;9.012;2022-09-03T00:14:24;17.60;88.30
8226;DHT22;4154;48.810;9.012;2022-09-03T00:17:01;17.60;88.60
8226;DHT22;4154;48.810;9.012;2022-09-03T00:19:36;17.60;88.80
8226;DHT22;4154;48.810;9.012;2022-09-03T00:22:12;17.60;88.90
8226;DHT22;4154;48.810;9.012;2022-09-03T00:24:43;17.60;89.10
8226;DHT22;4154;48.810;9.012;2022-09-03T00:27:21;17.60;89.10
8226;DHT22;4154;48.810;9.012;2022-09-03T00:30:00;17.60;89.20
8226;DHT22;4154;48.810;9.012;2022-09-03T00:36:07;17.60;89.30
8226;DHT22;4154;48.810;9.012;2022-09-03T00:38:41;17.60;89.40
8226;DHT22;4154;48.810;9.012;2022-09-03T00:41:19;17.60;89.20
8226;DHT22;4154;48.810;9.012;2022-09-03T00:56:20;17.50;90.20
8226;DHT22;4154;48.810;9.012;2022-09-03T00:59:24;17.40;90.30
8226;DHT22;4154;48.810;9.012;2022-09-03T01:05:08;17.40;90.30
8226;DHT22;4154;48.810;9.012;2022-09-03T01:13:28;17.40;90.20
8226;DHT22;4154;48.810;9.012;2022-09-03T01:16:27;17.40;90.20
8226;DHT22;4154;48.810;9.012;2022-09-03T01:28:19;17.70;96.40
8226;DHT22;4154;48.810;9.012;2022-09-03T01:31:27;17.40;90.40
8226;DHT22;4154;48.810;9.012;2022-09-03T01:34:35;17.40;90.50
8226;DHT22;4154;48.810;9.012;2022-09-03T01:37:28;17.40;90.50
8226;DHT22;4154;48.810;9.012;2022-09-03T01:42:58;17.30;90.70
8226;DHT22;4154;48.810;9.012;2022-09-03T01:46:17;17.30;90.80
8226;DHT22;4154;48.810;9.012;2022-09-03T01:51:45;17.30;91.00
8226;DHT22;4154;48.810;9.012;2022-09-03T02:00:48;17.30;91.10
8226;DHT22;4154;48.810;9.012;2022-09-03T02:03:22;17.30;91.20
8226;DHT22;4154;48.810;9.012;2022-09-03T02:05:49;17.30;91.20
8226;DHT22;4154;48.810;9.012;2022-09-03T02:08:18;17.30;91.20
8226;DHT22;4154;48.810;9.012;2022-09-03T02:10:50;17.30;91.20
8226;DHT22;4154;48.810;9.012;2022-09-03T02:13:48;17.30;91.20
8226;DHT22;4154;48.810;9.012;2022-09-03T02:16:21;17.30;91.30
8226;DHT22;4154;48.810;9.012;2022-09-03T02:18:51;17.30;91.20
8226;DHT22;4154;48.810;9.012;2022-09-03T02:21:23;17.30;91.40
8226;DHT22;4154;48.810;9.012;2022-09-03T02:23:52;17.30;91.50
8226;DHT22;4154;48.810;9.012;2022-09-03T02:26:23;17.30;91.50
8226;DHT22;4154;48.810;9.012;2022-09-03T02:28:50;17.20;91.50
8226;DHT22;4154;48.810;9.012;2022-09-03T02:31:17;17.20;91.50
8226;DHT22;4154;48.810;9.012;2022-09-03T02:33:46;17.20;91.60
8226;DHT22;4154;48.810;9.012;2022-09-03T02:36:16;17.20;91.60
8226;DHT22;4154;48.810;9.012;2022-09-03T02:38:46;17.10;91.60
8226;DHT22;4154;48.810;9.012;2022-09-03T02:41:12;17.10;91.60
8226;DHT22;4154;48.810;9.012;2022-09-03T02:44:01;17.10;91.60
8226;DHT22;4154;48.810;9.012;2022-09-03T02:46:49;17.10;91.60
8226;DHT22;4154;48.810;9.012;2022-09-03T02:49:18;17.10;91.70
8226;DHT22;4154;48.810;9.012;2022-09-03T02:51:44;17.10;91.90
8226;DHT22;4154;48.810;9.012;2022-09-03T02:54:11;16.70;97.60
8226;DHT22;4154;48.810;9.012;2022-09-03T02:56:38;17.00;92.20
8226;DHT22;4154;48.810;9.012;2022-09-03T02:59:06;17.00;92.40
8226;DHT22;4154;48.810;9.012;2022-09-03T03:01:34;17.20;98.80
8226;DHT22;4154;48.810;9.012;2022-09-03T03:04:01;16.90;92.30
8226;DHT22;4154;48.810;9.012;2022-09-03T03:06:27;16.90;92.30
8226;DHT22;4154;48.810;9.012;2022-09-03T03:08:53;16.90;92.10
8226;DHT22;4154;48.810;9.012;2022-09-03T03:11:20;16.90;91.90
8226;DHT22;4154;48.810;9.012;2022-09-03T03:13:47;16.90;92.00
8226;DHT22;4154;48.810;9.012;2022-09-03T03:16:14;16.90;92.20
8226;DHT22;4154;48.810;9.012;2022-09-03T03:18:41;16.90;92.30
8226;DHT22;4154;48.810;9.012;2022-09-03T03:21:09;16.90;92.30
8226;DHT22;4154;48.810;9.012;2022-09-03T03:23:37;16.90;92.40
8226;DHT22;4154;48.810;9.012;2022-09-03T03:26:10;16.80;92.50
8226;DHT22;4154;48.810;9.012;2022-09-03T03:28:37;16.90;92.60
8226;DHT22;4154;48.810;9.012;2022-09-03T03:31:11;16.90;92.60
8226;DHT22;4154;48.810;9.012;2022-09-03T03:33:39;16.90;92.70
8226;DHT22;4154;48.810;9.012;2022-09-03T03:36:15;16.90;92.70
8226;DHT22;4154;48.810;9.012;2022-09-03T03:38:42;16.80;92.70
8226;DHT22;4154;48.810;9.012;2022-09-03T03:43:42;16.80;92.70
8226;DHT22;4154;48.810;9.012;2022-09-03T03:46:08;16.80;92.70
8226;DHT22;4154;48.810;9.012;2022-09-03T03:48:36;16.80;92.80
8226;DHT22;4154;48.810;9.012;2022-09-03T03:51:05;16.80;92.80
8226;DHT22;4154;48.810;9.012;2022-09-03T03:53:34;16.80;92.90
8226;DHT22;4154;48.810;9.012;2022-09-03T03:56:03;16.80;93.00
8226;DHT22;4154;48.810;9.012;2022-09-03T03:58:34;16.80;93.00
8226;DHT22;4154;48.810;9.012;2022-09-03T04:01:12;16.80;98.80
8226;DHT22;4154;48.810;9.012;2022-09-03T04:03:43;16.80;93.10
8226;DHT22;4154;48.810;9.012;2022-09-03T04:06:11;16.80;93.00
8226;DHT22;4154;48.810;9.012;2022-09-03T04:08:40;16.80;93.00
8226;DHT22;4154;48.810;9.012;2022-09-03T04:11:08;16.80;93.00
8226;DHT22;4154;48.810;9.012;2022-09-03T04:13:40;16.80;93.10
8226;DHT22;4154;48.810;9.012;2022-09-03T04:16:16;16.90;99.40
8226;DHT22;4154;48.810;9.012;2022-09-03T04:18:44;16.80;93.10
8226;DHT22;4154;48.810;9.012;2022-09-03T04:21:19;16.80;93.10
8226;DHT22;4154;48.810;9.012;2022-09-03T04:23:48;16.80;93.20
8226;DHT22;4154;48.810;9.012;2022-09-03T04:26:20;16.80;93.20
8226;DHT22;4154;48.810;9.012;2022-09-03T04:28:48;16.80;93.20
8226;DHT22;4154;48.810;9.012;2022-09-03T04:31:15;16.80;93.10
8226;DHT22;4154;48.810;9.012;2022-09-03T04:33:42;16.80;93.30
8226;DHT22;4154;48.810;9.012;2022-09-03T04:36:09;16.80;93.30
8226;DHT22;4154;48.810;9.012;2022-09-03T04:38:39;16.70;93.60
8226;DHT22;4154;48.810;9.012;2022-09-03T04:41:08;16.70;93.40
8226;DHT22;4154;48.810;9.012;2022-09-03T04:43:36;16.70;93.40
8226;DHT22;4154;48.810;9.012;2022-09-03T04:46:06;16.70;93.50
8226;DHT22;4154;48.810;9.012;2022-09-03T04:48:34;16.60;93.50
8226;DHT22;4154;48.810;9.012;2022-09-03T04:51:07;16.60;93.60
8226;DHT22;4154;48.810;9.012;2022-09-03T04:53:37;16.70;99.30
8226;DHT22;4154;48.810;9.012;2022-09-03T04:56:18;16.60;93.80
8226;DHT22;4154;48.810;9.012;2022-09-03T04:58:57;16.50;93.90
8226;DHT22;4154;48.810;9.012;2022-09-03T05:01:35;16.50;93.90
8226;DHT22;4154;48.810;9.012;2022-09-03T05:04:03;16.50;93.90
8226;DHT22;4154;48.810;9.012;2022-09-03T05:06:33;16.50;94.00
8226;DHT22;4154;48.810;9.012;2022-09-03T05:09:02;16.60;94.20
8226;DHT22;4154;48.810;9.012;2022-09-03T05:11:29;16.60;94.40
8226;DHT22;4154;48.810;9.012;2022-09-03T05:13:57;16.60;94.60
8226;DHT22;4154;48.810;9.012;2022-09-03T05:16:25;16.60;95.10
8226;DHT22;4154;48.810;9.012;2022-09-03T05:18:54;16.60;99.90
8226;DHT22;4154;48.810;9.012;2022-09-03T05:21:22;16.70;95.90
8226;DHT22;4154;48.810;9.012;2022-09-03T05:23:49;17.00;99.90
8226;DHT22;4154;48.810;9.012;2022-09-03T05:26:22;16.70;96.40
8226;DHT22;4154;48.810;9.012;2022-09-03T05:28:58;16.70;96.40
8226;DHT22;4154;48.810;9.012;2022-09-03T05:31:27;16.70;96.50
8226;DHT22;4154;48.810;9.012;2022-09-03T05:33:57;16.70;96.50
8226;DHT22;4154;48.810;9.012;2022-09-03T05:36:28;16.70;96.70
8226;DHT22;4154;48.810;9.012;2022-09-03T05:38:57;16.70;96.90
8226;DHT22;4154;48.810;9.012;2022-09-03T05:41:24;16.80;97.30
8226;DHT22;4154;48.810;9.012;2022-09-03T05:43:52;16.80;97.50
8226;DHT22;4154;48.810;9.012;2022-09-03T05:46:30;16.80;97.50
8226;DHT22;4154;48.810;9.012;2022-09-03T05:49:05;16.90;97.80
8226;DHT22;4154;48.810;9.012;2022-09-03T05:51:33;17.00;98.00
8226;DHT22;4154;48.810;9.012;2022-09-03T05:54:00;17.00;98.20
8226;DHT22;4154;48.810;9.012;2022-09-03T05:56:29;17.10;98.50
8226;DHT22;4154;48.810;9.012;2022-09-03T05:58:59;17.10;98.60
8226;DHT22;4154;48.810;9.012;2022-09-03T06:01:27;17.20;98.80
8226;DHT22;4154;48.810;9.012;2022-09-03T06:03:59;17.20;98.80
8226;DHT22;4154;48.810;9.012;2022-09-03T06:06:28;17.20;98.90
8226;DHT22;4154;48.810;9.012;2022-09-03T06:09:07;17.20;99.00
8226;DHT22;4154;48.810;9.012;2022-09-03T06:11:36;17.30;98.90
8226;DHT22;4154;48.810;9.012;2022-09-03T06:14:05;17.30;98.90
8226;DHT22;4154;48.810;9.012;2022-09-03T06:16:36;17.30;99.00
8226;DHT22;4154;48.810;9.012;2022-09-03T06:19:04;17.30;99.40
8226;DHT22;4154;48.810;9.012;2022-09-03T06:21:36;17.40;99.20
8226;DHT22;4154;48.810;9.012;2022-09-03T06:24:05;17.40;99.20
8226;DHT22;4154;48.810;9.012;2022-09-03T06:26:31;17.50;99.30
8226;DHT22;4154;48.810;9.012;2022-09-03T06:28:57;17.50;99.30
8226;DHT22;4154;48.810;9.012;2022-09-03T06:31:24;17.60;99.10
8226;DHT22;4154;48.810;9.012;2022-09-03T06:36:19;17.70;99.30
8226;DHT22;4154;48.810;9.012;2022-09-03T06:38:50;17.70;99.60
8226;DHT22;4154;48.810;9.012;2022-09-03T06:41:19;17.70;99.60
8226;DHT22;4154;48.810;9.012;2022-09-03T06:43:54;17.80;99.20
8226;DHT22;4154;48.810;9.012;2022-09-03T06:46:30;17.80;99.40
8226;DHT22;4154;48.810;9.012;2022-09-03T06:51:26;17.90;99.20
8226;DHT22;4154;48.810;9.012;2022-09-03T06:53:59;18.20;99.90
8226;DHT22;4154;48.810;9.012;2022-09-03T06:56:31;17.90;99.60
8226;DHT22;4154;48.810;9.012;2022-09-03T06:58:59;17.90;99.70
8226;DHT22;4154;48.810;9.012;2022-09-03T07:01:31;17.90;99.90
8226;DHT22;4154;48.810;9.012;2022-09-03T07:04:03;18.00;99.90
8226;DHT22;4154;48.810;9.012;2022-09-03T07:06:34;18.00;99.90
8226;DHT22;4154;48.810;9.012;2022-09-03T07:09:04;18.00;99.90
8226;DHT22;4154;48.810;9.012;2022-09-03T07:14:07;18.10;99.90
8226;DHT22;4154;48.810;9.012;2022-09-03T07:16:35;18.10;99.90
8226;DHT22;4154;48.810;9.012;2022-09-03T07:19:02;18.30;99.90
8226;DHT22;4154;48.810;9.012;2022-09-03T07:21:30;18.30;99.90
8226;DHT22;4154;48.810;9.012;2022-09-03T07:23:58;18.20;99.90
8226;DHT22;4154;48.810;9.012;2022-09-03T07:26:29;18.30;99.90
8226;DHT22;4154;48.810;9.012;2022-09-03T07:28:58;18.50;99.90
8226;DHT22;4154;48.810;9.012;2022-09-03T07:31:30;18.40;99.90
8226;DHT22;4154;48.810;9.012;2022-09-03T07:33:59;18.40;99.90
8226;DHT22;4154;48.810;9.012;2022-09-03T07:38:57;18.50;99.90
8226;DHT22;4154;48.810;9.012;2022-09-03T07:41:24;18.50;99.90
8226;DHT22;4154;48.810;9.012;2022-09-03T07:46:21;18.60;99.70
8226;DHT22;4154;48.810;9.012;2022-09-03T07:48:50;18.60;99.90
8226;DHT22;4154;48.810;9.012;2022-09-03T07:51:18;18.70;99.90
8226;DHT22;4154;48.810;9.012;2022-09-03T07:53:46;18.70;99.70
8226;DHT22;4154;48.810;9.012;2022-09-03T07:56:13;18.80;99.20
8226;DHT22;4154;48.810;9.012;2022-09-03T08:01:09;18.90;98.80
8226;DHT22;4154;48.810;9.012;2022-09-03T08:03:36;19.00;99.30
8226;DHT22;4154;48.810;9.012;2022-09-03T08:06:06;19.10;98.80
8226;DHT22;4154;48.810;9.012;2022-09-03T08:08:33;19.10;99.10
8226;DHT22;4154;48.810;9.012;2022-09-03T08:11:10;19.10;98.90
8226;DHT22;4154;48.810;9.012;2022-09-03T08:13:39;19.10;98.80
8226;DHT22;4154;48.810;9.012;2022-09-03T08:16:08;19.10;98.50
8226;DHT22;4154;48.810;9.012;2022-09-03T08:18:35;19.20;98.60
8226;DHT22;4154;48.810;9.012;2022-09-03T08:21:11;19.20;98.00
8226;DHT22;4154;48.810;9.012;2022-09-03T08:23:48;19.20;98.60
8226;DHT22;4154;48.810;9.012;2022-09-03T08:26:16;19.20;97.90
8226;DHT22;4154;48.810;9.012;2022-09-03T08:28:43;19.20;98.30
8226;DHT22;4154;48.810;9.012;2022-09-03T08:31:19;19.20;98.40
8226;DHT22;4154;48.810;9.012;2022-09-03T08:33:49;19.20;98.30
8226;DHT22;4154;48.810;9.012;2022-09-03T08:36:18;19.30;97.90
8226;DHT22;4154;48.810;9.012;2022-09-03T08:38:53;19.30;97.50
8226;DHT22;4154;48.810;9.012;2022-09-03T08:44:27;19.30;98.20
8226;DHT22;4154;48.810;9.012;2022-09-03T08:50:10;19.30;97.50
8226;DHT22;4154;48.810;9.012;2022-09-03T08:52:49;19.30;97.20
8226;DHT22;4154;48.810;9.012;2022-09-03T08:58:32;19.40;99.90
8226;DHT22;4154;48.810;9.012;2022-09-03T09:01:14;19.40;96.00
8226;DHT22;4154;48.810;9.012;2022-09-03T09:06:52;19.40;95.60
8226;DHT22;4154;48.810;9.012;2022-09-03T09:13:12;19.60;99.90
8226;DHT22;4154;48.810;9.012;2022-09-03T09:22:11;19.60;95.20
8226;DHT22;4154;48.810;9.012;2022-09-03T09:24:46;19.60;95.40
8226;DHT22;4154;48.810;9.012;2022-09-03T09:27:16;19.70;95.30
8226;DHT22;4154;48.810;9.012;2022-09-03T09:29:45;19.70;95.30
8226;DHT22;4154;48.810;9.012;2022-09-03T09:32:14;19.70;95.40
8226;DHT22;4154;48.810;9.012;2022-09-03T09:37:14;19.80;95.00
8226;DHT22;4154;48.810;9.012;2022-09-03T09:39:56;20.00;94.40
8226;DHT22;4154;48.810;9.012;2022-09-03T09:42:24;20.00;94.70
8226;DHT22;4154;48.810;9.012;2022-09-03T09:47:30;20.00;94.40
8226;DHT22;4154;48.810;9.012;2022-09-03T09:50:03;20.00;94.50
8226;DHT22;4154;48.810;9.012;2022-09-03T09:52:44;20.10;94.30
8226;DHT22;4154;48.810;9.012;2022-09-03T09:55:16;20.00;94.30
8226;DHT22;4154;48.810;9.012;2022-09-03T09:57:44;20.10;94.50
8226;DHT22;4154;48.810;9.012;2022-09-03T10:00:13;20.10;94.80
8226;DHT22;4154;48.810;9.012;2022-09-03T10:02:52;20.10;95.00
8226;DHT22;4154;48.810;9.012;2022-09-03T10:07:59;20.10;94.30
8226;DHT22;4154;48.810;9.012;2022-09-03T10:10:29;20.30;94.40
8226;DHT22;4154;48.810;9.012;2022-09-03T10:13:05;20.50;99.30
8226;DHT22;4154;48.810;9.012;2022-09-03T10:18:52;20.40;94.20
8226;DHT22;4154;48.810;9.012;2022-09-03T10:24:50;20.50;94.40
8226;DHT22;4154;48.810;9.012;2022-09-03T10:47:13;20.70;94.30
8226;DHT22;4154;48.810;9.012;2022-09-03T10:53:01;20.80;94.20
8226;DHT22;4154;48.810;9.012;2022-09-03T10:55:48;20.80;93.70
8226;DHT22;4154;48.810;9.012;2022-09-03T10:58:52;20.80;93.90
8226;DHT22;4154;48.810;9.012;2022-09-03T11:01:52;20.80;93.90
8226;DHT22;4154;48.810;9.012;2022-09-03T11:07:03;20.90;93.90
8226;DHT22;4154;48.810;9.012;2022-09-03T11:10:40;21.00;93.80
8226;DHT22;4154;48.810;9.012;2022-09-03T11:13:13;21.00;93.60
8226;DHT22;4154;48.810;9.012;2022-09-03T11:16:08;21.00;93.90
8226;DHT22;4154;48.810;9.012;2022-09-03T11:18:49;21.10;94.20
8226;DHT22;4154;48.810;9.012;2022-09-03T11:21:23;21.20;94.10
8226;DHT22;4154;48.810;9.012;2022-09-03T11:24:42;21.20;93.80
8226;DHT22;4154;48.810;9.012;2022-09-03T11:40:38;21.30;94.20
8226;DHT22;4154;48.810;9.012;2022-09-03T11:43:24;21.30;94.50
8226;DHT22;4154;48.810;9.012;2022-09-03T11:48:51;21.40;93.70
8226;DHT22;4154;48.810;9.012;2022-09-03T11:51:32;21.30;93.90
8226;DHT22;4154;48.810;9.012;2022-09-03T11:54:30;21.30;94.10
8226;DHT22;4154;48.810;9.012;2022-09-03T11:57:12;21.30;94.30
8226;DHT22;4154;48.810;9.012;2022-09-03T11:59:42;21.20;94.10
8226;DHT22;4154;48.810;9.012;2022-09-03T12:02:44;21.20;94.30
8226;DHT22;4154;48.810;9.012;2022-09-03T12:08:56;21.10;95.10
8226;DHT22;4154;48.810;9.012;2022-09-03T12:14:39;21.00;96.00
8226;DHT22;4154;48.810;9.012;2022-09-03T12:20:35;20.90;96.70
8226;DHT22;4154;48.810;9.012;2022-09-03T12:23:01;20.90;99.90
8226;DHT22;4154;48.810;9.012;2022-09-03T12:25:28;20.80;97.20
8226;DHT22;4154;48.810;9.012;2022-09-03T12:30:23;20.70;98.10
8226;DHT22;4154;48.810;9.012;2022-09-03T12:32:50;20.70;97.80
8226;DHT22;4154;48.810;9.012;2022-09-03T12:37:55;20.40;96.70
8226;DHT22;4154;48.810;9.012;2022-09-03T12:40:26;19.90;99.90
8226;DHT22;4154;48.810;9.012;2022-09-03T12:42:54;19.80;96.80
8226;DHT22;4154;48.810;9.012;2022-09-03T12:45:44;19.50;97.30
8226;DHT22;4154;48.810;9.012;2022-09-03T12:48:17;19.10;98.30
8226;DHT22;4154;48.810;9.012;2022-09-03T12:50:46;18.90;99.90
8226;DHT22;4154;48.810;9.012;2022-09-03T12:53:20;18.80;99.90
8226;DHT22;4154;48.810;9.012;2022-09-03T12:55:52;18.70;99.80
8226;DHT22;4154;48.810;9.012;2022-09-03T12:58:37;18.60;99.90
8226;DHT22;4154;48.810;9.012;2022-09-03T13:01:19;18.60;99.90
8226;DHT22;4154;48.810;9.012;2022-09-03T13:03:56;18.60;99.90
8226;DHT22;4154;48.810;9.012;2022-09-03T13:09:37;18.60;99.90
8226;DHT22;4154;48.810;9.012;2022-09-03T13:12:06;18.70;99.90
8226;DHT22;4154;48.810;9.012;2022-09-03T13:14:46;18.50;99.90
8226;DHT22;4154;48.810;9.012;2022-09-03T13:25:29;19.20;99.90
8226;DHT22;4154;48.810;9.012;2022-09-03T13:40:13;19.60;99.90
8226;DHT22;4154;48.810;9.012;2022-09-03T13:43:06;19.60;99.90
8226;DHT22;4154;48.810;9.012;2022-09-03T13:46:01;19.50;99.90
8226;DHT22;4154;48.810;9.012;2022-09-03T13:48:40;19.50;99.90
8226;DHT22;4154;48.810;9.012;2022-09-03T13:54:24;19.60;99.90
8226;DHT22;4154;48.810;9.012;2022-09-03T14:19:59;20.10;99.90
8226;DHT22;4154;48.810;9.012;2022-09-03T14:25:21;20.00;99.90
8226;DHT22;4154;48.810;9.012;2022-09-03T14:27:48;20.00;99.90
8226;DHT22;4154;48.810;9.012;2022-09-03T14:33:10;19.90;99.90
8226;DHT22;4154;48.810;9.012;2022-09-03T15:08:08;20.80;99.90
8226;DHT22;4154;48.810;9.012;2022-09-03T15:10:37;20.80;99.90
8226;DHT22;4154;48.810;9.012;2022-09-03T15:44:29;20.70;99.90
8226;DHT22;4154;48.810;9.012;2022-09-03T15:50:09;20.60;99.90
8226;DHT22;4154;48.810;9.012;2022-09-03T15:53:14;20.60;99.90
8226;DHT22;4154;48.810;9.012;2022-09-03T15:56:12;20.50;99.90
8226;DHT22;4154;48.810;9.012;2022-09-03T15:59:11;20.50;99.90
8226;DHT22;4154;48.810;9.012;2022-09-03T16:01:50;20.50;99.90
8226;DHT22;4154;48.810;9.012;2022-09-03T16:10:57;20.50;99.90
8226;DHT22;4154;48.810;9.012;2022-09-03T16:22:21;20.40;99.90
8226;DHT22;4154;48.810;9.012;2022-09-03T16:25:02;20.40;99.90
8226;DHT22;4154;48.810;9.012;2022-09-03T16:27:51;20.40;99.90
8226;DHT22;4154;48.810;9.012;2022-09-03T16:30:52;20.30;99.90
8226;DHT22;4154;48.810;9.012;2022-09-03T17:08:07;20.40;99.90
8226;DHT22;4154;48.810;9.012;2022-09-03T17:11:02;20.40;99.90
8226;DHT22;4154;48.810;9.012;2022-09-03T17:13:57;20.30;99.90
8226;DHT22;4154;48.810;9.012;2022-09-03T17:17:03;20.30;99.90
8226;DHT22;4154;48.810;9.012;2022-09-03T17:19:58;20.20;99.90
8226;DHT22;4154;48.810;9.012;2022-09-03T17:25:50;20.10;99.90
8226;DHT22;4154;48.810;9.012;2022-09-03T17:28:26;20.10;99.90
8226;DHT22;4154;48.810;9.012;2022-09-03T17:31:16;20.10;99.90
8226;DHT22;4154;48.810;9.012;2022-09-03T17:40:19;20.00;99.90
8226;DHT22;4154;48.810;9.012;2022-09-03T17:45:35;19.90;99.90
8226;DHT22;4154;48.810;9.012;2022-09-03T17:50:57;19.70;99.90
8226;DHT22;4154;48.810;9.012;2022-09-03T17:53:43;19.70;99.90
8226;DHT22;4154;48.810;9.012;2022-09-03T17:56:24;19.70;99.90
8226;DHT22;4154;48.810;9.012;2022-09-03T17:59:09;19.70;99.90
8226;DHT22;4154;48.810;9.012;2022-09-03T18:01:44;19.60;99.90
8226;DHT22;4154;48.810;9.012;2022-09-03T18:18:50;19.40;99.90
8226;DHT22;4154;48.810;9.012;2022-09-03T18:21:22;19.40;99.90
8226;DHT22;4154;48.810;9.012;2022-09-03T18:27:32;19.30;99.90
8226;DHT22;4154;48.810;9.012;2022-09-03T18:30:22;19.30;99.90
8226;DHT22;4154;48.810;9.012;2022-09-03T18:33:07;19.20;99.90
8226;DHT22;4154;48.810;9.012;2022-09-03T18:35:53;19.20;99.90
8226;DHT22;4154;48.810;9.012;2022-09-03T18:38:39;19.10;99.90
8226;DHT22;4154;48.810;9.012;2022-09-03T18:41:46;19.10;99.90
8226;DHT22;4154;48.810;9.012;2022-09-03T18:44:48;19.10;99.90
8226;DHT22;4154;48.810;9.012;2022-09-03T18:54:54;19.00;99.90
8226;DHT22;4154;48.810;9.012;2022-09-03T18:58:29;19.00;99.90
8226;DHT22;4154;48.810;9.012;2022-09-03T19:01:30;19.00;99.90
8226;DHT22;4154;48.810;9.012;2022-09-03T19:04:50;18.90;99.90
8226;DHT22;4154;48.810;9.012;2022-09-03T19:08:01;18.90;99.90
8226;DHT22;4154;48.810;9.012;2022-09-03T19:21:02;18.90;99.90
8226;DHT22;4154;48.810;9.012;2022-09-03T19:23:58;18.90;99.90
8226;DHT22;4154;48.810;9.012;2022-09-03T19:27:02;18.90;99.90
8226;DHT22;4154;48.810;9.012;2022-09-03T19:36:12;18.80;99.90
8226;DHT22;4154;48.810;9.012;2022-09-03T19:39:19;18.80;99.90
8226;DHT22;4154;48.810;9.012;2022-09-03T19:50:02;18.70;99.90
8226;DHT22;4154;48.810;9.012;2022-09-03T19:56:00;18.70;99.90
8226;DHT22;4154;48.810;9.012;2022-09-03T19:58:59;18.70;99.90
8226;DHT22;4154;48.810;9.012;2022-09-03T20:01:50;18.60;99.90
8226;DHT22;4154;48.810;9.012;2022-09-03T20:04:40;18.60;99.90
8226;DHT22;4154;48.810;9.012;2022-09-03T20:07:44;18.60;99.90
8226;DHT22;4154;48.810;9.012;2022-09-03T20:10:33;18.60;99.90
8226;DHT22;4154;48.810;9.012;2022-09-03T20:13:07;18.50;99.90
8226;DHT22;4154;48.810;9.012;2022-09-03T20:21:43;18.50;99.90
8226;DHT22;4154;48.810;9.012;2022-09-03T20:27:27;18.50;99.90
8226;DHT22;4154;48.810;9.012;2022-09-03T20:30:05;18.40;99.90
8226;DHT22;4154;48.810;9.012;2022-09-03T20:44:02;18.30;99.90
8226;DHT22;4154;48.810;9.012;2022-09-03T20:47:16;18.30;99.90
8226;DHT22;4154;48.810;9.012;2022-09-03T20:55:45;18.30;99.90
8226;DHT22;4154;48.810;9.012;2022-09-03T20:58:42;18.30;99.90
8226;DHT22;4154;48.810;9.012;2022-09-03T21:01:27;18.20;99.90
8226;DHT22;4154;48.810;9.012;2022-09-03T21:16:24;18.10;99.90
8226;DHT22;4154;48.810;9.012;2022-09-03T21:19:10;18.10;99.90
8226;DHT22;4154;48.810;9.012;2022-09-03T21:27:23;18.10;99.90
8226;DHT22;4154;48.810;9.012;2022-09-03T21:30:13;18.10;99.90
8226;DHT22;4154;48.810;9.012;2022-09-03T21:33:04;18.10;99.90
8226;DHT22;4154;48.810;9.012;2022-09-03T21:35:41;18.10;99.90
8226;DHT22;4154;48.810;9.012;2022-09-03T21:38:25;18.10;99.90
8226;DHT22;4154;48.810;9.012;2022-09-03T21:46:31;18.00;99.90
8226;DHT22;4154;48.810;9.012;2022-09-03T21:49:09;18.00;99.90
8226;DHT22;4154;48.810;9.012;2022-09-03T21:54:29;18.20;99.90
8226;DHT22;4154;48.810;9.012;2022-09-03T22:00:13;18.10;99.90
8226;DHT22;4154;48.810;9.012;2022-09-03T22:02:43;18.00;99.90
8226;DHT22;4154;48.810;9.012;2022-09-03T22:05:12;18.10;99.90
8226;DHT22;4154;48.810;9.012;2022-09-03T22:21:19;18.10;99.90
8226;DHT22;4154;48.810;9.012;2022-09-03T22:30:12;18.10;99.90
8226;DHT22;4154;48.810;9.012;2022-09-03T22:41:00;18.00;99.90
8226;DHT22;4154;48.810;9.012;2022-09-03T22:46:14;18.00;99.90
8226;DHT22;4154;48.810;9.012;2022-09-03T22:54:32;17.90;99.90
8226;DHT22;4154;48.810;9.012;2022-09-03T22:57:07;17.90;99.90
8226;DHT22;4154;48.810;9.012;2022-09-03T22:59:40;17.90;99.90
8226;DHT22;4154;48.810;9.012;2022-09-03T23:02:29;17.90;99.90
8226;DHT22;4154;48.810;9.012;2022-09-03T23:05:04;17.90;99.90
8226;DHT22;4154;48.810;9.012;2022-09-03T23:16:18;17.80;99.90
8226;DHT22;4154;48.810;9.012;2022-09-03T23:18:52;17.80;99.90
8226;DHT22;4154;48.810;9.012;2022-09-03T23:22:00;17.80;99.90
8226;DHT22;4154;48.810;9.012;2022-09-03T23:24:36;17.70;99.90
8226;DHT22;4154;48.810;9.012;2022-09-03T23:27:09;17.70;99.90
8226;DHT22;4154;48.810;9.012;2022-09-03T23:29:52;17.70;99.90
8226;DHT22;4154;48.810;9.012;2022-09-03T23:34:47;17.80;99.90
8226;DHT22;4154;48.810;9.012;2022-09-03T23:57:38;17.40;99.90
